Time;durP1;ratioP1;P1;durP2;ratioP2;P2;SDS_P1;SDS_P2;PMS_P1;PMS_P2;Temp;Humidity;BMP_temperature;BMP_pressure;BME280_temperature;BME280_humidity;BME280_pressure;Samples;Min_cycle;Max_cycle;Signal;HPM_P1;HPM_P2
2022/06/20 00:01:00;;;;;;;27.33;8.27;;;;;;;;;;6277774;22;19995;-69
2022/06/20 00:03:31;;;;;;;20.70;7.95;;;;;;;;;;6250774;22;20011;-69
2022/06/20 00:05:56;;;;;;;23.85;7.20;;;;;;;;;;6278107;22;20023;-69
2022/06/20 00:08:22;;;;;;;24.27;7.43;;;;;;;;;;6278112;22;19999;-70
2022/06/20 00:10:48;;;;;;;22.73;7.43;;;;;;;;;;6278039;22;20011;-69
2022/06/20 00:13:24;;;;;;;23.33;6.75;;;;;;;;;;6277210;22;20045;-69
2022/06/20 00:15:51;;;;;;;21.45;7.00;;;;;;;;;;6277471;22;20428;-69
2022/06/20 00:18:17;;;;;;;20.65;6.75;;;;;;;;;;6277935;22;20031;-69
2022/06/20 00:20:42;;;;;;;21.88;7.85;;;;;;;;;;6277867;22;20413;-69
2022/06/20 00:23:07;;;;;;;16.38;6.50;;;;;;;;;;6278121;22;20328;-69
2022/06/20 00:25:34;;;;;;;24.23;6.22;;;;;;;;;;6277646;22;20022;-69
2022/06/20 00:27:59;;;;;;;21.70;6.15;;;;;;;;;;6277881;22;20008;-69
2022/06/20 00:30:25;;;;;;;20.40;6.07;;;;;;;;;;6277065;22;20022;-69
2022/06/20 00:32:50;;;;;;;28.35;6.50;;;;;;;;;;6278179;22;20105;-69
2022/06/20 00:35:16;;;;;;;30.88;6.07;;;;;;;;;;6277705;22;20312;-69
2022/06/20 00:37:41;;;;;;;18.55;6.57;;;;;;;;;;6277790;22;20472;-69
2022/06/20 00:40:21;;;;;;;23.48;6.93;;;;;;;;;;6277637;22;20012;-69
2022/06/20 00:42:47;;;;;;;20.73;6.32;;;;;;;;;;6277723;22;20003;-69
2022/06/20 00:45:12;;;;;;;20.25;6.72;;;;;;;;;;6277481;22;20037;-69
2022/06/20 00:47:38;;;;;;;20.10;6.22;;;;;;;;;;6277885;22;20026;-69
2022/06/20 00:50:04;;;;;;;18.08;5.75;;;;;;;;;;6277407;22;20094;-69
2022/06/20 00:52:33;;;;;;;14.40;5.63;;;;;;;;;;6277754;22;20050;-69
2022/06/20 00:55:17;;;;;;;16.67;6.10;;;;;;;;;;6277913;22;20518;-69
2022/06/20 00:57:53;;;;;;;26.90;5.70;;;;;;;;;;6277452;22;20008;-69
2022/06/20 01:00:20;;;;;;;19.50;5.95;;;;;;;;;;6277061;22;20479;-69
2022/06/20 01:02:51;;;;;;;21.95;6.25;;;;;;;;;;6277648;22;20008;-69
2022/06/20 01:05:35;;;;;;;20.42;5.55;;;;;;;;;;6277248;22;20004;-69
2022/06/20 01:08:03;;;;;;;16.42;5.35;;;;;;;;;;6277512;22;20027;-69
2022/06/20 01:10:32;;;;;;;20.65;5.43;;;;;;;;;;6276710;22;20306;-69
2022/06/20 01:13:00;;;;;;;19.80;5.25;;;;;;;;;;6277855;22;20010;-69
2022/06/20 01:15:31;;;;;;;27.85;5.78;;;;;;;;;;6277166;22;20000;-70
2022/06/20 01:17:57;;;;;;;13.77;5.20;;;;;;;;;;6277147;22;20459;-69
2022/06/20 01:20:24;;;;;;;19.67;5.43;;;;;;;;;;6276979;22;20002;-69
2022/06/20 01:23:08;;;;;;;24.02;5.50;;;;;;;;;;6277255;22;20014;-69
2022/06/20 01:25:51;;;;;;;14.57;5.40;;;;;;;;;;6277111;22;20003;-69
2022/06/20 01:28:19;;;;;;;16.05;4.78;;;;;;;;;;6277379;22;20023;-69
2022/06/20 01:30:45;;;;;;;23.92;5.50;;;;;;;;;;6277021;22;20407;-70
2022/06/20 01:33:11;;;;;;;13.05;4.95;;;;;;;;;;6276947;22;20461;-69
2022/06/20 01:38:21;;;;;;;13.88;4.47;;;;;;;;;;6276576;22;20110;-70
2022/06/20 01:43:30;;;;;;;;;;;;;;;;;;6277201;22;20046;-70
2022/06/20 01:45:59;;;;;;;19.35;4.03;;;;;;;;;;6277027;22;19903;-69
2022/06/20 01:48:26;;;;;;;17.38;3.88;;;;;;;;;;6250042;22;20319;-69
2022/06/20 01:50:52;;;;;;;16.77;4.88;;;;;;;;;;6276648;22;20363;-70
2022/06/20 01:53:19;;;;;;;21.10;4.65;;;;;;;;;;6276631;22;20007;-69
2022/06/20 01:55:47;;;;;;;13.07;4.30;;;;;;;;;;6277116;22;20430;-69
2022/06/20 01:58:15;;;;;;;20.67;4.50;;;;;;;;;;6276959;22;19996;-70
2022/06/20 02:00:40;;;;;;;23.70;4.75;;;;;;;;;;6277168;22;20407;-68
2022/06/20 02:03:07;;;;;;;15.10;5.38;;;;;;;;;;6276815;22;20004;-69
2022/06/20 02:05:33;;;;;;;18.77;4.63;;;;;;;;;;6276701;22;19999;-69
2022/06/20 02:08:01;;;;;;;16.02;4.72;;;;;;;;;;6277090;22;20004;-69
2022/06/20 02:10:40;;;;;;;16.70;4.78;;;;;;;;;;6276812;22;20012;-69
2022/06/20 02:13:06;;;;;;;20.25;4.65;;;;;;;;;;6276689;22;20436;-69
2022/06/20 02:15:32;;;;;;;10.65;4.10;;;;;;;;;;6276539;22;20011;-69
2022/06/20 02:17:59;;;;;;;15.73;4.50;;;;;;;;;;6276829;22;19995;-69
2022/06/20 02:20:27;;;;;;;19.25;4.50;;;;;;;;;;6276723;22;20030;-69
2022/06/20 02:22:53;;;;;;;19.70;4.53;;;;;;;;;;6276660;22;20363;-69
2022/06/20 02:25:21;;;;;;;16.63;4.45;;;;;;;;;;6276837;22;20049;-69
2022/06/20 02:27:48;;;;;;;14.23;4.22;;;;;;;;;;6277147;22;19995;-69
2022/06/20 02:30:14;;;;;;;13.77;4.38;;;;;;;;;;6276436;22;20082;-69
2022/06/20 02:32:51;;;;;;;12.07;4.05;;;;;;;;;;6277003;22;20023;-69
2022/06/20 02:35:17;;;;;;;17.17;4.53;;;;;;;;;;6276599;22;20027;-69
2022/06/20 02:37:43;;;;;;;25.85;4.75;;;;;;;;;;6276675;22;20082;-69
2022/06/20 02:40:11;;;;;;;13.10;4.00;;;;;;;;;;6276841;22;20011;-69
2022/06/20 02:42:45;;;;;;;23.08;4.53;;;;;;;;;;6249498;22;20316;-69
2022/06/20 02:45:11;;;;;;;14.68;4.03;;;;;;;;;;6276570;22;20007;-69
2022/06/20 02:47:45;;;;;;;21.73;4.65;;;;;;;;;;6276604;22;20031;-69
2022/06/20 02:50:11;;;;;;;14.30;4.10;;;;;;;;;;6276567;22;20008;-69
2022/06/20 02:52:46;;;;;;;13.05;4.03;;;;;;;;;;6276108;22;20000;-69
2022/06/20 02:55:13;;;;;;;11.35;4.53;;;;;;;;;;6277068;22;20008;-69
2022/06/20 02:57:40;;;;;;;13.95;4.40;;;;;;;;;;6276376;22;20000;-69
2022/06/20 03:00:08;;;;;;;19.50;4.38;;;;;;;;;;6276306;22;20073;-69
2022/06/20 03:02:36;;;;;;;15.80;3.83;;;;;;;;;;6276277;22;20404;-69
2022/06/20 03:05:03;;;;;;;15.30;3.90;;;;;;;;;;6276083;22;20458;-70
2022/06/20 03:07:30;;;;;;;15.38;4.47;;;;;;;;;;6276685;22;20000;-70
2022/06/20 03:10:01;;;;;;;22.55;4.80;;;;;;;;;;6276709;22;20000;-69
2022/06/20 03:12:26;;;;;;;11.68;3.60;;;;;;;;;;6276048;22;20004;-69
2022/06/20 03:14:54;;;;;;;11.18;4.22;;;;;;;;;;6275697;22;20010;-69
2022/06/20 03:17:20;;;;;;;20.15;4.18;;;;;;;;;;6276468;22;20386;-69
2022/06/20 03:19:47;;;;;;;13.93;3.88;;;;;;;;;;6276267;22;20082;-69
2022/06/20 03:22:16;;;;;;;19.33;4.15;;;;;;;;;;6276751;22;20008;-70
2022/06/20 03:24:42;;;;;;;12.65;3.80;;;;;;;;;;6276207;22;19996;-69
2022/06/20 03:27:07;;;;;;;13.77;3.90;;;;;;;;;;6276171;22;20320;-69
2022/06/20 03:29:37;;;;;;;29.05;4.80;;;;;;;;;;6276006;22;20004;-69
2022/06/20 03:32:02;;;;;;;14.80;4.10;;;;;;;;;;6276412;22;19996;-69
2022/06/20 03:34:27;;;;;;;17.67;3.88;;;;;;;;;;6276322;22;20606;-69
2022/06/20 03:36:53;;;;;;;19.15;3.47;;;;;;;;;;6276393;22;20004;-69
2022/06/20 03:39:18;;;;;;;22.33;4.30;;;;;;;;;;6276009;22;20016;-69
2022/06/20 03:41:44;;;;;;;15.50;3.00;;;;;;;;;;6276627;22;20085;-69
2022/06/20 03:44:12;;;;;;;11.80;3.70;;;;;;;;;;6276002;22;20008;-69
2022/06/20 03:46:41;;;;;;;17.08;3.60;;;;;;;;;;6276340;22;19996;-69
2022/06/20 03:49:14;;;;;;;13.45;3.55;;;;;;;;;;6275675;22;20008;-69
2022/06/20 03:51:47;;;;;;;12.70;3.33;;;;;;;;;;6275702;22;20443;-69
2022/06/20 03:54:39;;;;;;;15.97;3.70;;;;;;;;;;6276602;22;20011;-69
2022/06/20 03:57:30;;;;;;;8.07;2.50;;;;;;;;;;6228809;22;20019;-69
2022/06/20 04:00:01;;;;;;;12.18;3.22;;;;;;;;;;6269506;22;20034;-69
2022/06/20 04:02:32;;;;;;;10.18;3.05;;;;;;;;;;6276372;22;20050;-69
2022/06/20 04:05:04;;;;;;;17.35;3.17;;;;;;;;;;6278072;22;20004;-69
2022/06/20 04:07:50;;;;;;;14.48;3.17;;;;;;;;;;6278436;22;20007;-69
2022/06/20 04:13:05;;;;;;;17.65;3.63;;;;;;;;;;6277581;22;20061;-69
2022/06/20 04:15:37;;;;;;;13.35;3.25;;;;;;;;;;6277788;22;20027;-69
2022/06/20 04:20:58;;;;;;;5.78;2.60;;;;;;;;;;6277452;22;20014;-69
2022/06/20 04:23:27;;;;;;;13.85;2.67;;;;;;;;;;6277981;22;20003;-69
2022/06/20 04:26:06;;;;;;;9.27;3.10;;;;;;;;;;6277633;22;19992;-69
2022/06/20 04:28:37;;;;;;;10.80;2.92;;;;;;;;;;6278018;22;20024;-69
2022/06/20 04:31:32;;;;;;;11.73;2.83;;;;;;;;;;6277393;22;20003;-69
2022/06/20 04:34:01;;;;;;;11.38;2.97;;;;;;;;;;6250825;22;20010;-69
2022/06/20 04:36:39;;;;;;;10.95;2.53;;;;;;;;;;6277718;22;20014;-69
2022/06/20 04:39:23;;;;;;;11.52;2.40;;;;;;;;;;6277490;22;20054;-69
2022/06/20 04:41:48;;;;;;;18.77;2.78;;;;;;;;;;6277717;22;19999;-69
2022/06/20 04:44:17;;;;;;;10.38;2.17;;;;;;;;;;6277535;22;20082;-69
2022/06/20 04:46:46;;;;;;;11.48;2.10;;;;;;;;;;6277281;22;20312;-69
2022/06/20 04:49:13;;;;;;;8.45;1.88;;;;;;;;;;6277632;22;20098;-69
2022/06/20 04:51:40;;;;;;;12.13;2.00;;;;;;;;;;6277663;22;20019;-69
2022/06/20 04:54:08;;;;;;;31.08;2.72;;;;;;;;;;6277559;22;20049;-69
2022/06/20 04:56:35;;;;;;;1370.80;71.22;;;;;;;;;;6276918;22;20491;-69
2022/06/20 04:59:02;;;;;;;889.95;47.25;;;;;;;;;;6277624;22;20039;-69
2022/06/20 05:01:31;;;;;;;394.13;20.30;;;;;;;;;;6277492;22;20019;-70
2022/06/20 05:04:01;;;;;;;179.05;8.38;;;;;;;;;;6277300;22;20420;-70
2022/06/20 05:06:27;;;;;;;181.35;8.15;;;;;;;;;;6277136;22;20010;-70
2022/06/20 05:08:54;;;;;;;22.35;1.75;;;;;;;;;;6277406;22;19992;-70
2022/06/20 05:11:35;;;;;;;9.18;1.40;;;;;;;;;;6277288;22;20398;-70
2022/06/20 05:14:09;;;;;;;5.18;1.40;;;;;;;;;;6277385;22;20031;-70
2022/06/20 05:16:42;;;;;;;10.30;1.67;;;;;;;;;;6277214;22;20037;-69
2022/06/20 05:19:12;;;;;;;8.32;1.65;;;;;;;;;;6277276;22;20000;-69
2022/06/20 05:21:42;;;;;;;3.42;1.30;;;;;;;;;;6277344;22;20446;-70
2022/06/20 05:24:19;;;;;;;3.25;1.30;;;;;;;;;;6277369;22;20079;-70
2022/06/20 05:26:46;;;;;;;3.15;1.33;;;;;;;;;;6277295;22;19995;-70
2022/06/20 05:29:17;;;;;;;3.47;1.20;;;;;;;;;;6276860;22;20010;-71
2022/06/20 05:31:43;;;;;;;2.78;1.20;;;;;;;;;;6276993;22;20006;-70
2022/06/20 05:34:09;;;;;;;3.08;1.00;;;;;;;;;;6277476;22;20003;-70
2022/06/20 05:36:41;;;;;;;3.60;1.35;;;;;;;;;;6277834;22;20011;-70
2022/06/20 05:39:06;;;;;;;2.72;1.10;;;;;;;;;;6276471;22;20490;-70
2022/06/20 05:41:31;;;;;;;4.90;1.40;;;;;;;;;;6277329;22;19991;-71
2022/06/20 05:43:57;;;;;;;4.70;1.30;;;;;;;;;;6276675;22;20229;-70
2022/06/20 05:46:24;;;;;;;4.05;1.27;;;;;;;;;;6276839;22;20071;-71
2022/06/20 05:48:51;;;;;;;3.97;1.20;;;;;;;;;;6277174;22;19998;-71
2022/06/20 05:51:18;;;;;;;5.35;1.55;;;;;;;;;;6277127;22;20118;-71
2022/06/20 05:53:46;;;;;;;4.40;1.20;;;;;;;;;;6277086;22;20057;-71
2022/06/20 05:56:18;;;;;;;3.08;1.10;;;;;;;;;;6276946;22;20388;-71
2022/06/20 05:58:44;;;;;;;6.30;1.30;;;;;;;;;;6277093;22;20012;-71
2022/06/20 06:01:14;;;;;;;4.95;1.35;;;;;;;;;;6276801;22;20000;-71
2022/06/20 06:03:44;;;;;;;3.63;1.10;;;;;;;;;;6276935;22;19987;-71
2022/06/20 06:06:31;;;;;;;2.38;0.93;;;;;;;;;;6276959;22;19999;-71
2022/06/20 06:09:18;;;;;;;4.90;1.20;;;;;;;;;;6276869;22;20002;-71
2022/06/20 06:11:49;;;;;;;3.03;1.20;;;;;;;;;;6276983;22;20053;-71
2022/06/20 06:14:33;;;;;;;4.68;1.20;;;;;;;;;;6276784;22;20133;-71
2022/06/20 06:17:22;;;;;;;3.38;1.15;;;;;;;;;;6276754;22;20007;-72
2022/06/20 06:19:50;;;;;;;4.38;1.35;;;;;;;;;;6260183;22;20074;-72
2022/06/20 06:22:20;;;;;;;3.90;1.17;;;;;;;;;;6276927;22;20359;-72
2022/06/20 06:24:47;;;;;;;6.38;1.35;;;;;;;;;;6276778;22;20003;-71
2022/06/20 06:27:19;;;;;;;5.10;1.35;;;;;;;;;;6276391;22;20464;-72
2022/06/20 06:29:47;;;;;;;3.85;1.20;;;;;;;;;;6276558;22;20037;-72
2022/06/20 06:32:25;;;;;;;4.03;1.15;;;;;;;;;;6276581;22;19996;-72
2022/06/20 06:34:58;;;;;;;4.05;1.40;;;;;;;;;;6276415;22;20003;-72
2022/06/20 06:37:27;;;;;;;4.32;1.20;;;;;;;;;;6276726;22;20003;-72
2022/06/20 06:39:58;;;;;;;3.92;1.38;;;;;;;;;;6276996;22;20320;-70
2022/06/20 06:42:23;;;;;;;5.05;1.40;;;;;;;;;;6276692;22;20008;-70
2022/06/20 06:44:50;;;;;;;3.95;1.20;;;;;;;;;;6249513;22;20355;-70
2022/06/20 06:47:38;;;;;;;4.97;1.70;;;;;;;;;;6276510;22;20008;-70
2022/06/20 06:50:26;;;;;;;6.25;1.65;;;;;;;;;;6276789;22;20022;-70
2022/06/20 06:52:56;;;;;;;6.57;1.67;;;;;;;;;;6259901;22;20008;-70
2022/06/20 06:55:39;;;;;;;4.88;1.63;;;;;;;;;;6275669;22;20519;-69
2022/06/20 06:58:24;;;;;;;4.95;1.85;;;;;;;;;;6276254;22;19999;-70
2022/06/20 07:00:52;;;;;;;5.45;1.50;;;;;;;;;;6253797;22;20018;-71
2022/06/20 07:03:20;;;;;;;5.85;1.88;;;;;;;;;;6276534;22;20000;-72
2022/06/20 07:05:49;;;;;;;5.45;1.75;;;;;;;;;;6276419;22;20020;-72
2022/06/20 07:08:21;;;;;;;5.78;1.63;;;;;;;;;;6276530;22;20323;-72
2022/06/20 07:10:47;;;;;;;5.22;1.70;;;;;;;;;;6276584;22;20039;-72
2022/06/20 07:13:32;;;;;;;5.63;1.60;;;;;;;;;;6276278;22;20015;-72
2022/06/20 07:15:59;;;;;;;7.78;1.75;;;;;;;;;;6213377;22;20067;-72
2022/06/20 07:18:27;;;;;;;5.88;1.67;;;;;;;;;;6276491;22;20007;-71
2022/06/20 07:20:52;;;;;;;5.63;1.60;;;;;;;;;;6276310;22;19991;-72
2022/06/20 07:23:18;;;;;;;8.60;1.50;;;;;;;;;;6276513;22;20431;-72
2022/06/20 07:25:46;;;;;;;4.38;1.50;;;;;;;;;;6276561;22;20008;-70
2022/06/20 07:28:34;;;;;;;3.65;1.70;;;;;;;;;;6276268;22;19996;-70
2022/06/20 07:31:22;;;;;;;7.38;1.70;;;;;;;;;;6276092;22;20016;-70
2022/06/20 07:33:48;;;;;;;4.85;1.75;;;;;;;;;;6259650;22;20015;-70
2022/06/20 07:36:14;;;;;;;5.78;2.00;;;;;;;;;;6276038;22;20004;-70
2022/06/20 07:38:55;;;;;;;6.88;1.92;;;;;;;;;;6276493;22;20365;-71
2022/06/20 07:41:24;;;;;;;4.22;1.55;;;;;;;;;;6269391;22;20006;-72
2022/06/20 07:43:55;;;;;;;5.90;1.77;;;;;;;;;;6269266;22;20000;-72
2022/06/20 07:46:33;;;;;;;6.35;1.80;;;;;;;;;;6273360;22;19998;-72
2022/06/20 07:49:02;;;;;;;5.03;1.75;;;;;;;;;;6268268;22;20008;-72
2022/06/20 07:51:30;;;;;;;7.68;1.88;;;;;;;;;;6273815;22;20014;-72
2022/06/20 07:53:58;;;;;;;5.38;1.40;;;;;;;;;;6272966;22;20008;-72
2022/06/20 07:56:27;;;;;;;7.75;1.60;;;;;;;;;;6274574;22;20049;-73
2022/06/20 07:59:05;;;;;;;3.30;1.50;;;;;;;;;;6264891;22;20003;-72
2022/06/20 08:01:42;;;;;;;5.22;1.60;;;;;;;;;;6269949;22;20003;-73
2022/06/20 08:04:08;;;;;;;4.78;1.63;;;;;;;;;;6272841;22;20003;-72
2022/06/20 08:06:33;;;;;;;5.35;1.40;;;;;;;;;;6272664;22;20436;-72
2022/06/20 08:09:03;;;;;;;6.18;1.88;;;;;;;;;;6273131;22;19995;-72
2022/06/20 08:11:40;;;;;;;6.47;1.88;;;;;;;;;;6246329;22;20342;-72
2022/06/20 08:14:10;;;;;;;8.85;2.08;;;;;;;;;;6273267;22;20079;-72
2022/06/20 08:16:36;;;;;;;4.78;1.70;;;;;;;;;;6272369;22;20420;-73
2022/06/20 08:19:01;;;;;;;5.20;1.60;;;;;;;;;;6272879;22;20000;-72
2022/06/20 08:21:29;;;;;;;4.50;1.65;;;;;;;;;;6273966;22;20062;-73
2022/06/20 08:23:59;;;;;;;5.88;1.80;;;;;;;;;;6274129;22;20045;-73
2022/06/20 08:26:30;;;;;;;3.20;1.40;;;;;;;;;;6273110;22;20011;-73
2022/06/20 08:29:02;;;;;;;5.55;2.05;;;;;;;;;;6272903;22;20004;-73
2022/06/20 08:31:27;;;;;;;3.60;1.65;;;;;;;;;;6272937;22;20023;-73
2022/06/20 08:34:04;;;;;;;8.00;1.63;;;;;;;;;;6271071;22;20065;-72
2022/06/20 08:36:30;;;;;;;4.78;1.70;;;;;;;;;;6273605;22;20280;-73
2022/06/20 08:39:01;;;;;;;4.18;1.63;;;;;;;;;;6272099;22;20094;-72
2022/06/20 08:41:39;;;;;;;3.92;1.77;;;;;;;;;;6273167;22;20049;-73
2022/06/20 08:44:04;;;;;;;5.75;1.77;;;;;;;;;;6271868;22;20003;-72
2022/06/20 08:46:32;;;;;;;7.82;1.85;;;;;;;;;;6266719;22;20014;-72
2022/06/20 08:49:16;;;;;;;4.00;1.48;;;;;;;;;;6272477;22;19988;-72
2022/06/20 08:52:06;;;;;;;7.25;1.88;;;;;;;;;;6271832;22;20011;-73
2022/06/20 08:54:48;;;;;;;5.30;1.58;;;;;;;;;;6270606;22;20016;-73
2022/06/20 08:57:17;;;;;;;6.82;2.15;;;;;;;;;;6273824;22;20035;-72
2022/06/20 08:59:46;;;;;;;4.78;1.80;;;;;;;;;;6273636;22;20002;-72
2022/06/20 09:02:18;;;;;;;5.45;1.95;;;;;;;;;;6272913;22;19996;-73
2022/06/20 09:05:01;;;;;;;4.45;1.63;;;;;;;;;;6273681;22;20004;-73
2022/06/20 09:07:36;;;;;;;5.20;1.60;;;;;;;;;;6273416;22;20000;-71
2022/06/20 09:10:01;;;;;;;8.32;2.10;;;;;;;;;;6271317;22;20083;-71
2022/06/20 09:12:38;;;;;;;5.57;1.90;;;;;;;;;;6273602;22;20027;-71
2022/06/20 09:15:15;;;;;;;3.63;1.65;;;;;;;;;;6273354;22;20221;-70
2022/06/20 09:17:44;;;;;;;4.93;1.98;;;;;;;;;;6273768;22;20004;-71
2022/06/20 09:20:41;;;;;;;5.10;1.80;;;;;;;;;;6273246;22;20039;-70
2022/06/20 09:23:06;;;;;;;5.97;1.95;;;;;;;;;;6205309;22;20033;-71
2022/06/20 09:25:35;;;;;;;5.03;2.10;;;;;;;;;;6273790;22;20000;-71
2022/06/20 09:28:18;;;;;;;6.20;2.35;;;;;;;;;;6273923;22;20535;-71
2022/06/20 09:30:44;;;;;;;4.43;1.95;;;;;;;;;;6272852;22;20424;-71
2022/06/20 09:33:09;;;;;;;6.30;2.00;;;;;;;;;;6273209;22;20122;-71
2022/06/20 09:35:49;;;;;;;5.63;1.70;;;;;;;;;;6273664;22;20075;-71
2022/06/20 09:38:33;;;;;;;4.93;1.95;;;;;;;;;;6272408;22;20241;-71
2022/06/20 09:41:07;;;;;;;5.18;2.10;;;;;;;;;;6273272;22;20003;-70
2022/06/20 09:43:35;;;;;;;5.35;1.70;;;;;;;;;;6273092;22;19996;-71
2022/06/20 09:46:00;;;;;;;5.72;1.77;;;;;;;;;;6272407;22;20165;-70
2022/06/20 09:48:44;;;;;;;6.93;1.73;;;;;;;;;;6246315;22;20388;-72
2022/06/20 09:51:21;;;;;;;4.53;1.80;;;;;;;;;;6274080;22;20252;-72
2022/06/20 09:53:50;;;;;;;9.98;1.88;;;;;;;;;;6272500;22;20434;-72
2022/06/20 09:56:15;;;;;;;4.35;1.50;;;;;;;;;;6259692;22;20014;-72
2022/06/20 09:58:43;;;;;;;5.00;2.00;;;;;;;;;;6273023;22;20000;-72
2022/06/20 10:01:11;;;;;;;6.97;1.67;;;;;;;;;;6272489;22;20206;-72
2022/06/20 10:03:50;;;;;;;3.70;1.63;;;;;;;;;;6271641;22;20060;-73
2022/06/20 10:06:31;;;;;;;5.00;1.60;;;;;;;;;;6271701;22;20008;-73
2022/06/20 10:08:56;;;;;;;4.65;1.88;;;;;;;;;;6272746;22;19999;-73
2022/06/20 10:11:40;;;;;;;7.95;1.80;;;;;;;;;;6268554;22;20016;-72
2022/06/20 10:14:05;;;;;;;4.75;1.63;;;;;;;;;;6271171;22;20018;-73
2022/06/20 10:16:30;;;;;;;4.47;1.63;;;;;;;;;;6271881;22;20039;-73
2022/06/20 10:19:02;;;;;;;5.45;1.85;;;;;;;;;;6271147;22;20267;-70
2022/06/20 10:21:42;;;;;;;3.95;1.60;;;;;;;;;;6271699;22;20007;-70
2022/06/20 10:24:13;;;;;;;7.47;1.77;;;;;;;;;;6272034;22;20004;-73
2022/06/20 10:26:44;;;;;;;4.65;1.90;;;;;;;;;;6270923;22;20010;-73
2022/06/20 10:29:15;;;;;;;3.72;1.60;;;;;;;;;;6271044;22;20386;-73
2022/06/20 10:31:40;;;;;;;5.28;1.92;;;;;;;;;;6271787;22;20061;-73
2022/06/20 10:34:07;;;;;;;4.90;1.70;;;;;;;;;;6262978;22;20106;-73
2022/06/20 10:36:59;;;;;;;5.60;1.70;;;;;;;;;;6270757;22;19998;-73
2022/06/20 10:39:35;;;;;;;4.38;1.55;;;;;;;;;;6264189;22;20657;-73
2022/06/20 10:42:24;;;;;;;4.82;1.63;;;;;;;;;;6271669;22;20007;-72
2022/06/20 10:45:08;;;;;;;4.45;1.63;;;;;;;;;;6252665;22;20065;-72
2022/06/20 10:47:46;;;;;;;5.22;1.65;;;;;;;;;;6271065;22;20349;-72
2022/06/20 10:50:20;;;;;;;3.25;1.35;;;;;;;;;;6271857;22;20016;-72
2022/06/20 10:52:49;;;;;;;4.25;1.52;;;;;;;;;;6271588;22;20011;-72
2022/06/20 10:55:23;;;;;;;4.28;1.55;;;;;;;;;;6271376;22;20008;-72
2022/06/20 10:57:57;;;;;;;5.03;1.55;;;;;;;;;;6271394;22;20011;-72
2022/06/20 11:00:25;;;;;;;6.28;2.47;;;;;;;;;;6271949;22;20479;-72
2022/06/20 11:03:09;;;;;;;4.20;1.30;;;;;;;;;;6271833;22;20004;-72
2022/06/20 11:05:40;;;;;;;4.78;1.60;;;;;;;;;;6271078;22;20014;-71
2022/06/20 11:08:12;;;;;;;6.38;1.55;;;;;;;;;;6271124;22;20003;-72
2022/06/20 11:10:37;;;;;;;6.43;1.83;;;;;;;;;;6270987;22;20031;-72
2022/06/20 11:13:18;;;;;;;7.00;1.60;;;;;;;;;;6271803;22;20065;-72
2022/06/20 11:15:51;;;;;;;6.38;1.85;;;;;;;;;;6272335;22;19999;-72
2022/06/20 11:18:25;;;;;;;4.50;1.50;;;;;;;;;;6273661;22;19999;-71
2022/06/20 11:20:54;;;;;;;3.38;1.35;;;;;;;;;;6272794;22;20000;-72
2022/06/20 11:23:26;;;;;;;3.05;1.40;;;;;;;;;;6273395;22;20012;-72
2022/06/20 11:26:11;;;;;;;8.15;1.45;;;;;;;;;;6273229;22;20431;-71
2022/06/20 11:29:06;;;;;;;4.82;1.55;;;;;;;;;;6273625;22;20008;-72
2022/06/20 11:31:34;;;;;;;6.03;1.77;;;;;;;;;;6164732;22;20009;-71
2022/06/20 11:34:14;;;;;;;7.28;1.48;;;;;;;;;;6273906;22;20305;-72
2022/06/20 11:36:55;;;;;;;5.45;1.40;;;;;;;;;;6272142;22;19998;-72
2022/06/20 11:39:39;;;;;;;5.38;1.77;;;;;;;;;;6273515;22;20012;-72
2022/06/20 11:42:04;;;;;;;;;;;;;;;;;;6274688;22;20006;-71
2022/06/20 11:44:38;;;;;;;4.72;1.65;;;;;;;;;;6273460;22;20328;-71
2022/06/20 11:47:16;;;;;;;3.55;1.17;;;;;;;;;;6274183;22;20026;-71
2022/06/20 11:49:56;;;;;;;3.88;1.50;;;;;;;;;;6274589;22;20396;-71
2022/06/20 11:52:21;;;;;;;7.18;1.80;;;;;;;;;;6271976;22;20015;-71
2022/06/20 11:54:58;;;;;;;7.82;1.88;;;;;;;;;;6263790;22;20043;-72
2022/06/20 11:57:38;;;;;;;6.32;1.90;;;;;;;;;;6266719;22;20011;-71
2022/06/20 12:00:09;;;;;;;5.00;1.60;;;;;;;;;;6272314;22;20099;-71
2022/06/20 12:02:34;;;;;;;5.35;1.70;;;;;;;;;;6272220;22;20004;-71
2022/06/20 12:05:20;;;;;;;6.88;1.70;;;;;;;;;;6272239;22;20070;-72
2022/06/20 12:07:45;;;;;;;4.40;1.48;;;;;;;;;;6210269;22;20039;-71
2022/06/20 12:10:29;;;;;;;6.30;1.75;;;;;;;;;;6271857;22;20018;-71
2022/06/20 12:13:14;;;;;;;5.68;1.70;;;;;;;;;;6264604;22;20004;-72
2022/06/20 12:15:58;;;;;;;4.63;2.08;;;;;;;;;;6233343;22;20138;-71
2022/06/20 12:18:23;;;;;;;4.50;1.58;;;;;;;;;;6271955;22;20037;-72
2022/06/20 12:23:43;;;;;;;4.78;1.73;;;;;;;;;;6271803;22;20049;-71
2022/06/20 12:26:18;;;;;;;4.93;1.92;;;;;;;;;;6272072;22;20003;-72
2022/06/20 12:28:48;;;;;;;6.05;2.03;;;;;;;;;;6266815;22;20413;-71
2022/06/20 12:31:13;;;;;;;6.82;1.90;;;;;;;;;;6272497;22;20089;-72
2022/06/20 12:33:43;;;;;;;7.65;1.80;;;;;;;;;;6271052;22;20000;-72
2022/06/20 12:36:16;;;;;;;6.65;1.55;;;;;;;;;;6272494;22;20022;-72
2022/06/20 12:38:46;;;;;;;6.17;2.00;;;;;;;;;;6272779;22;20020;-72
2022/06/20 12:41:13;;;;;;;5.05;1.63;;;;;;;;;;6268555;22;20006;-72
2022/06/20 12:44:02;;;;;;;5.35;1.48;;;;;;;;;;6271269;22;20466;-72
2022/06/20 12:46:46;;;;;;;8.57;1.73;;;;;;;;;;6252251;22;20035;-71
2022/06/20 12:49:19;;;;;;;7.53;2.05;;;;;;;;;;6272522;22;20003;-72
2022/06/20 12:51:52;;;;;;;8.23;1.70;;;;;;;;;;6271697;22;20008;-72
2022/06/20 12:54:27;;;;;;;6.45;1.75;;;;;;;;;;6270514;22;20008;-72
2022/06/20 12:57:01;;;;;;;4.03;1.70;;;;;;;;;;6272289;22;19996;-72
2022/06/20 12:59:35;;;;;;;9.02;1.60;;;;;;;;;;6272446;22;20031;-71
2022/06/20 13:02:12;;;;;;;4.22;1.40;;;;;;;;;;6270233;22;20336;-71
2022/06/20 13:04:46;;;;;;;4.97;2.13;;;;;;;;;;6269403;22;20073;-71
2022/06/20 13:07:21;;;;;;;4.25;1.70;;;;;;;;;;6271546;22;20077;-71
2022/06/20 13:10:04;;;;;;;5.50;1.60;;;;;;;;;;6272511;22;20040;-71
2022/06/20 13:12:38;;;;;;;5.15;1.30;;;;;;;;;;6271085;22;20505;-72
2022/06/20 13:15:07;;;;;;;4.88;1.63;;;;;;;;;;6244118;22;20016;-72
2022/06/20 13:17:38;;;;;;;7.60;1.48;;;;;;;;;;6271442;22;20003;-72
2022/06/20 13:20:06;;;;;;;4.63;1.67;;;;;;;;;;6269933;22;20003;-71
2022/06/20 13:22:42;;;;;;;5.13;1.75;;;;;;;;;;6270556;22;20468;-71
2022/06/20 13:25:10;;;;;;;4.40;1.60;;;;;;;;;;6270575;22;20069;-71
2022/06/20 13:27:49;;;;;;;5.82;2.17;;;;;;;;;;6271425;22;20035;-71
2022/06/20 13:30:18;;;;;;;10.02;2.05;;;;;;;;;;6269237;22;20011;-71
2022/06/20 13:32:43;;;;;;;5.75;1.90;;;;;;;;;;6271942;22;20003;-71
2022/06/20 13:35:12;;;;;;;4.35;1.60;;;;;;;;;;6271053;22;20881;-71
2022/06/20 13:37:46;;;;;;;4.03;1.77;;;;;;;;;;6271195;22;20038;-72
2022/06/20 13:40:16;;;;;;;5.03;1.88;;;;;;;;;;6271382;22;20019;-71
2022/06/20 13:42:44;;;;;;;4.68;1.65;;;;;;;;;;6271562;22;20044;-71
2022/06/20 13:45:17;;;;;;;4.45;2.00;;;;;;;;;;6271907;22;20003;-71
2022/06/20 13:47:46;;;;;;;5.68;1.70;;;;;;;;;;6270964;22;20004;-71
2022/06/20 13:50:14;;;;;;;5.70;2.08;;;;;;;;;;6271484;22;20007;-72
2022/06/20 13:52:46;;;;;;;5.38;1.83;;;;;;;;;;6272662;22;20003;-71
2022/06/20 13:55:17;;;;;;;4.07;1.70;;;;;;;;;;6272413;22;20011;-71
2022/06/20 13:57:45;;;;;;;6.70;1.58;;;;;;;;;;6271237;22;20035;-71
2022/06/20 14:00:16;;;;;;;5.05;1.63;;;;;;;;;;6272287;22;20416;-71
2022/06/20 14:02:43;;;;;;;6.25;1.80;;;;;;;;;;6272868;22;20002;-71
2022/06/20 14:05:14;;;;;;;5.38;1.70;;;;;;;;;;6271235;22;20007;-71
2022/06/20 14:07:40;;;;;;;7.97;2.58;;;;;;;;;;6270866;22;19995;-71
2022/06/20 14:10:06;;;;;;;7.20;1.95;;;;;;;;;;6270811;22;20015;-71
2022/06/20 14:12:33;;;;;;;5.05;1.92;;;;;;;;;;6271644;22;20075;-71
2022/06/20 14:15:01;;;;;;;5.53;1.92;;;;;;;;;;6272135;22;20071;-71
2022/06/20 14:17:28;;;;;;;5.80;2.00;;;;;;;;;;6268813;22;20011;-72
2022/06/20 14:19:54;;;;;;;5.60;1.85;;;;;;;;;;6266247;22;20002;-71
2022/06/20 14:22:23;;;;;;;4.30;1.50;;;;;;;;;;6271529;22;19996;-71
2022/06/20 14:24:49;;;;;;;6.85;2.10;;;;;;;;;;6271291;22;20060;-71
2022/06/20 14:27:17;;;;;;;6.25;1.73;;;;;;;;;;6270676;22;20003;-71
2022/06/20 14:29:43;;;;;;;4.30;1.55;;;;;;;;;;6271299;22;20010;-71
2022/06/20 14:32:08;;;;;;;4.60;1.67;;;;;;;;;;6271089;22;19996;-71
2022/06/20 14:35:31;;;;;;;3.65;1.77;;;;;;;;;;6270290;22;20010;-71
2022/06/20 14:37:51;;;;;;;4.15;1.70;;;;;;;;;;6254013;22;20022;-72
2022/06/20 14:40:20;;;;;;;4.40;2.10;;;;;;;;;;6271015;22;20507;-71
2022/06/20 14:42:52;;;;;;;6.22;1.73;;;;;;;;;;6270642;22;20386;-71
2022/06/20 14:45:21;;;;;;;6.55;1.70;;;;;;;;;;6271188;22;20004;-71
2022/06/20 14:48:00;;;;;;;5.85;2.30;;;;;;;;;;6269922;22;20058;-72
2022/06/20 14:50:25;;;;;;;6.90;1.50;;;;;;;;;;6270834;22;20034;-71
2022/06/20 14:52:50;;;;;;;8.15;2.15;;;;;;;;;;6270120;22;20020;-71
2022/06/20 14:55:20;;;;;;;6.20;1.88;;;;;;;;;;6270940;22;20088;-71
2022/06/20 14:57:50;;;;;;;4.75;1.40;;;;;;;;;;6270787;22;20757;-71
2022/06/20 15:00:18;;;;;;;7.18;1.85;;;;;;;;;;6270721;22;20003;-71
2022/06/20 15:02:47;;;;;;;6.30;1.90;;;;;;;;;;6270460;22;20012;-72
2022/06/20 15:05:21;;;;;;;9.63;2.67;;;;;;;;;;6272039;22;20311;-71
2022/06/20 15:07:52;;;;;;;6.57;1.60;;;;;;;;;;6271470;22;20003;-71
2022/06/20 15:10:29;;;;;;;7.63;2.15;;;;;;;;;;6270918;22;20015;-71
2022/06/20 15:13:01;;;;;;;6.22;1.83;;;;;;;;;;6270623;22;20413;-72
2022/06/20 15:15:34;;;;;;;4.60;1.83;;;;;;;;;;6271223;22;20008;-71
2022/06/20 15:17:59;;;;;;;;;;;;;;;;;;6271518;22;20058;-71